CZ-0028 weather

Teaching Thomayer Hospital Heliport
Prague, Prague (capital city), Czechia

Public forecast

Using degrees Celsius for public forecast. Weather courtesy of forecast.io.

METAR (pilot weather report)

Closest report is Kbely Air Base, 6.3 nm (11.7 km) NNE. Retrieved 2019/03/22 07:00 UTC (43 minutes ago):

LKKB 220700Z VRB02KT CAVOK 06/01 Q1033 NOSIG

TAF (pilot weather forecast)

Closest forecast is Kbely Air Base, 6.3 nm (11.7 km) NNE. Retrieved 2019/03/22 06:00 UTC (2 hours ago):

TAF LKKB 220500Z 2206/2306 VRB02KT CAVOK BECMG 2302/2304 5000 BR